Terminal Aerodrome Forecast
Issued by NWS Greer, SC

Home | Current Version | Previous Version | Text Only | Print | Product List | Glossary On
Versions: 1 2 3 4 5 6 7 8 9 10 11 12 13 14 15 16 17 18 19 20 21 22 23 24 25 26 27
934
FTUS42 KGSP 261130
TAFAVL
TAF
KAVL 261130Z 2612/2712 00000KT P6SM SCT045
     FM261400 34003KT P6SM BKN050
      TEMPO 2619/2623 VRB10G15KT 4SM -TSRA BKN045CB
     FM270400 00000KT P6SM SCT070
      TEMPO 2709/2712 00000KT 4SM BR SCT070=

USA.gov is the U.S. government's official web portal to all federal, state and local government web resources and services.